createdAt,value
2019-02-16T00:00:25.185Z,16.61
2019-02-16T00:01:05.826Z,16.53
2019-02-16T00:01:46.480Z,16.57
2019-02-16T00:02:27.134Z,16.63
2019-02-16T00:03:07.817Z,16.58
2019-02-16T00:03:48.461Z,16.58
2019-02-16T00:04:29.119Z,16.52
2019-02-16T00:05:09.791Z,16.58
2019-02-16T00:05:50.432Z,16.58
2019-02-16T00:06:31.084Z,16.61
2019-02-16T00:07:11.740Z,16.66
2019-02-16T00:07:52.392Z,16.52
2019-02-16T00:08:33.030Z,16.52
2019-02-16T00:09:13.662Z,16.52
2019-02-16T00:09:54.315Z,16.5
2019-02-16T00:10:34.967Z,16.58
2019-02-16T00:11:15.623Z,16.52
2019-02-16T00:11:56.258Z,16.5
2019-02-16T00:12:36.949Z,16.61
2019-02-16T00:13:17.601Z,16.48
2019-02-16T00:13:58.274Z,16.52
2019-02-16T00:14:38.938Z,16.49
2019-02-16T00:15:19.594Z,16.48
2019-02-16T00:16:00.272Z,16.46
2019-02-16T00:16:40.962Z,16.53
2019-02-16T00:17:21.621Z,16.46
2019-02-16T00:18:02.279Z,16.49
2019-02-16T00:18:42.924Z,16.46
2019-02-16T00:19:23.579Z,16.52
2019-02-16T00:20:04.226Z,16.46
2019-02-16T00:20:44.936Z,16.45
2019-02-16T00:21:25.538Z,16.43
2019-02-16T00:22:06.194Z,16.5
2019-02-16T00:22:46.867Z,16.53
2019-02-16T00:23:27.534Z,16.5
2019-02-16T00:24:08.241Z,16.46
2019-02-16T00:24:48.889Z,16.53
2019-02-16T00:25:29.544Z,16.49
2019-02-16T00:26:10.218Z,16.45
2019-02-16T00:26:50.878Z,16.48
2019-02-16T00:27:31.523Z,16.46
2019-02-16T00:28:12.166Z,16.56
2019-02-16T00:28:52.860Z,16.49
2019-02-16T00:29:33.528Z,16.48
2019-02-16T00:30:14.177Z,16.48
2019-02-16T00:30:54.827Z,16.5
2019-02-16T00:31:35.470Z,16.53
2019-02-16T00:32:16.124Z,16.49
2019-02-16T00:32:56.785Z,16.49
2019-02-16T00:33:37.432Z,16.43
2019-02-16T00:34:18.106Z,16.49
2019-02-16T00:34:58.784Z,16.52
2019-02-16T00:35:39.456Z,16.5
2019-02-16T00:36:20.120Z,16.56
2019-02-16T00:37:00.795Z,16.48
2019-02-16T00:37:41.452Z,16.48
2019-02-16T00:38:22.118Z,16.48
2019-02-16T00:39:02.783Z,16.45
2019-02-16T00:39:43.497Z,16.48
2019-02-16T00:40:24.151Z,16.52
2019-02-16T00:41:04.850Z,16.5
2019-02-16T00:41:45.502Z,16.49
2019-02-16T00:42:26.185Z,16.49
2019-02-16T00:43:06.843Z,16.52
2019-02-16T00:43:47.511Z,16.49
2019-02-16T00:44:30.169Z,16.45
2019-02-16T00:45:08.813Z,16.46
2019-02-16T00:45:49.471Z,16.49
2019-02-16T00:46:30.141Z,16.46
2019-02-16T00:47:10.802Z,16.46
2019-02-16T00:47:51.457Z,16.48
2019-02-16T00:48:32.110Z,16.46
2019-02-16T00:49:12.759Z,16.48
2019-02-16T00:49:53.405Z,16.43
2019-02-16T00:50:34.088Z,16.45
2019-02-16T00:51:14.753Z,16.5
2019-02-16T00:51:55.442Z,16.45
2019-02-16T00:52:36.120Z,16.48
2019-02-16T00:53:16.761Z,16.46
2019-02-16T00:53:57.413Z,16.43
2019-02-16T00:54:38.065Z,16.48
2019-02-16T00:55:18.713Z,16.45
2019-02-16T00:55:59.355Z,16.46
2019-02-16T00:56:40.021Z,16.45
2019-02-16T00:57:20.736Z,16.49
2019-02-16T00:58:01.394Z,16.45
2019-02-16T00:58:42.054Z,16.49
2019-02-16T00:59:22.717Z,16.49
2019-02-16T01:00:03.363Z,16.45
2019-02-16T01:00:44.008Z,16.45
2019-02-16T01:01:24.668Z,16.43
2019-02-16T01:02:05.321Z,16.45
2019-02-16T01:02:45.990Z,16.35
2019-02-16T01:03:26.674Z,16.46
2019-02-16T01:04:07.334Z,16.42
2019-02-16T01:04:48.094Z,16.46
2019-02-16T01:05:28.750Z,16.48
2019-02-16T01:06:09.458Z,16.49
2019-02-16T01:06:50.142Z,16.39
2019-02-16T01:07:30.805Z,16.45
2019-02-16T01:08:11.480Z,16.43
2019-02-16T01:08:52.122Z,16.46
2019-02-16T01:09:32.770Z,16.49
2019-02-16T01:10:13.426Z,16.46
2019-02-16T01:10:54.127Z,16.5
2019-02-16T01:11:34.785Z,16.49
2019-02-16T01:12:15.456Z,16.42
2019-02-16T01:12:56.117Z,16.39
2019-02-16T01:13:36.758Z,16.45
2019-02-16T01:14:17.410Z,16.45
2019-02-16T01:14:58.081Z,16.38
2019-02-16T01:15:38.785Z,16.42
2019-02-16T01:16:19.431Z,16.41
2019-02-16T01:17:00.121Z,16.48
2019-02-16T01:17:40.781Z,16.45
2019-02-16T01:18:21.471Z,16.38
2019-02-16T01:19:02.127Z,16.43
2019-02-16T01:19:42.775Z,16.46
2019-02-16T01:20:23.427Z,16.42
2019-02-16T01:21:04.139Z,16.46
2019-02-16T01:21:44.801Z,16.35
2019-02-16T01:22:25.467Z,16.46
2019-02-16T01:23:06.132Z,16.33
2019-02-16T01:23:46.793Z,16.38
2019-02-16T01:24:27.484Z,16.43
2019-02-16T01:25:08.140Z,16.45
2019-02-16T01:25:48.821Z,16.41
2019-02-16T01:26:29.537Z,16.34
2019-02-16T01:27:10.216Z,16.3
2019-02-16T01:27:50.873Z,16.35
2019-02-16T01:28:31.523Z,16.46
2019-02-16T01:29:12.203Z,16.35
2019-02-16T01:29:52.886Z,16.38
2019-02-16T01:30:33.557Z,16.41
2019-02-16T01:31:14.228Z,16.42
2019-02-16T01:31:54.877Z,16.35
2019-02-16T01:32:35.533Z,16.41
2019-02-16T01:33:16.165Z,16.38
2019-02-16T01:33:56.840Z,16.39
2019-02-16T01:34:37.552Z,16.35
2019-02-16T01:35:18.237Z,16.34
2019-02-16T01:35:58.950Z,16.38
2019-02-16T01:36:39.610Z,16.33
2019-02-16T01:37:20.265Z,16.35
2019-02-16T01:38:00.913Z,16.38
2019-02-16T01:38:41.604Z,16.39
2019-02-16T01:39:22.270Z,16.41
2019-02-16T01:40:02.917Z,16.34
2019-02-16T01:40:43.576Z,16.45
2019-02-16T01:41:24.246Z,16.34
2019-02-16T01:42:04.916Z,16.33
2019-02-16T01:42:45.589Z,16.34
2019-02-16T01:43:26.296Z,16.38
2019-02-16T01:44:06.943Z,16.41
2019-02-16T01:44:47.613Z,16.38
2019-02-16T01:45:28.279Z,16.38
2019-02-16T01:46:08.992Z,16.33
2019-02-16T01:46:49.678Z,16.38
2019-02-16T01:47:30.328Z,16.35
2019-02-16T01:48:11.000Z,16.41
2019-02-16T01:48:51.684Z,16.34
2019-02-16T01:49:32.389Z,16.42
2019-02-16T01:50:13.041Z,16.35
2019-02-16T01:50:53.693Z,16.35
2019-02-16T01:51:34.362Z,16.41
2019-02-16T01:52:15.032Z,16.38
2019-02-16T01:52:55.740Z,16.38
2019-02-16T01:53:36.402Z,16.43
2019-02-16T01:54:17.068Z,16.38
2019-02-16T01:54:57.727Z,16.35
2019-02-16T01:55:38.392Z,16.3
2019-02-16T01:56:19.050Z,16.33
2019-02-16T01:56:59.704Z,16.34
2019-02-16T01:57:40.397Z,16.39
2019-02-16T01:58:21.054Z,16.3
2019-02-16T01:59:01.817Z,16.31
2019-02-16T01:59:42.494Z,16.33
2019-02-16T02:00:23.151Z,16.33
2019-02-16T02:01:03.800Z,16.34
2019-02-16T02:01:44.444Z,16.42
2019-02-16T02:02:25.103Z,16.35
2019-02-16T02:03:05.749Z,16.33
2019-02-16T02:03:46.417Z,16.33
2019-02-16T02:04:27.074Z,16.34
2019-02-16T02:05:07.751Z,16.3
2019-02-16T02:05:48.417Z,16.42
2019-02-16T02:06:29.088Z,16.35
2019-02-16T02:07:09.785Z,16.38
2019-02-16T02:07:50.412Z,16.46
2019-02-16T02:08:31.066Z,16.31
2019-02-16T02:09:12.309Z,16.41
2019-02-16T02:09:52.364Z,16.41
2019-02-16T02:10:33.045Z,16.41
2019-02-16T02:11:13.795Z,16.35
2019-02-16T02:11:54.444Z,16.31
2019-02-16T02:12:35.093Z,16.3
2019-02-16T02:13:15.735Z,16.43
2019-02-16T02:13:56.395Z,16.34
2019-02-16T02:14:37.065Z,16.35
2019-02-16T02:15:17.713Z,16.33
2019-02-16T02:15:58.443Z,16.33
2019-02-16T02:16:39.147Z,16.34
2019-02-16T02:17:19.812Z,16.39
2019-02-16T02:18:00.461Z,16.33
2019-02-16T02:18:41.111Z,16.39
2019-02-16T02:19:21.814Z,16.34
2019-02-16T02:20:02.439Z,16.34
2019-02-16T02:20:43.088Z,16.33
2019-02-16T02:21:23.774Z,16.31
2019-02-16T02:22:04.499Z,16.34
2019-02-16T02:22:45.169Z,16.3
2019-02-16T02:23:25.823Z,16.38
2019-02-16T02:24:06.540Z,16.33
2019-02-16T02:24:47.226Z,16.33
2019-02-16T02:25:27.878Z,16.31
2019-02-16T02:26:08.591Z,16.42
2019-02-16T02:26:49.241Z,16.33
2019-02-16T02:27:29.889Z,16.38
2019-02-16T02:28:10.579Z,16.31
2019-02-16T02:28:51.233Z,16.33
2019-02-16T02:29:31.906Z,16.3
2019-02-16T02:30:12.557Z,16.33
2019-02-16T02:30:53.226Z,16.41
2019-02-16T02:31:33.867Z,16.33
2019-02-16T02:32:14.511Z,16.35
2019-02-16T02:32:55.158Z,16.38
2019-02-16T02:33:35.816Z,16.35
2019-02-16T02:34:16.475Z,16.38
2019-02-16T02:34:57.127Z,16.28
2019-02-16T02:35:37.779Z,16.28
2019-02-16T02:36:18.450Z,16.28
2019-02-16T02:36:59.103Z,16.31
2019-02-16T02:37:39.754Z,16.31
2019-02-16T02:38:20.408Z,16.41
2019-02-16T02:39:01.077Z,16.38
2019-02-16T02:39:41.727Z,16.39
2019-02-16T02:40:22.384Z,16.33
2019-02-16T02:41:03.053Z,16.28
2019-02-16T02:41:43.703Z,16.24
2019-02-16T02:42:24.397Z,16.31
2019-02-16T02:43:05.047Z,16.31
2019-02-16T02:43:45.698Z,16.33
2019-02-16T02:44:26.350Z,16.3
2019-02-16T02:45:07.001Z,16.41
2019-02-16T02:45:47.660Z,16.38
2019-02-16T02:46:28.323Z,16.34
2019-02-16T02:47:08.996Z,16.38
2019-02-16T02:47:49.641Z,16.35
2019-02-16T02:48:30.291Z,16.33
2019-02-16T02:49:10.964Z,16.33
2019-02-16T02:49:51.616Z,16.33
2019-02-16T02:50:32.264Z,16.38
2019-02-16T02:51:12.910Z,16.28
2019-02-16T02:51:53.571Z,16.33
2019-02-16T02:52:34.207Z,16.34
2019-02-16T02:53:14.865Z,16.34
2019-02-16T02:53:55.511Z,16.27
2019-02-16T02:54:36.160Z,16.33
2019-02-16T02:55:16.823Z,16.33
2019-02-16T02:55:57.479Z,16.41
2019-02-16T02:56:38.127Z,16.38
2019-02-16T02:57:18.801Z,16.34
2019-02-16T02:57:59.465Z,16.38
2019-02-16T02:58:40.116Z,16.38
2019-02-16T02:59:20.771Z,16.31
2019-02-16T03:00:01.425Z,16.31
2019-02-16T03:00:42.093Z,16.34
2019-02-16T03:01:22.740Z,16.34
2019-02-16T03:02:03.390Z,16.34
2019-02-16T03:02:44.033Z,16.24
2019-02-16T03:03:24.682Z,16.31
2019-02-16T03:04:05.328Z,16.27
2019-02-16T03:04:45.981Z,16.28
2019-02-16T03:05:26.646Z,16.31
2019-02-16T03:06:07.319Z,16.24
2019-02-16T03:06:48.099Z,16.27
2019-02-16T03:07:28.624Z,16.25
2019-02-16T03:08:09.287Z,16.25
2019-02-16T03:08:49.932Z,16.33
2019-02-16T03:09:30.585Z,16.25
2019-02-16T03:10:11.239Z,16.25
2019-02-16T03:10:51.877Z,16.2
2019-02-16T03:11:32.526Z,16.23
2019-02-16T03:12:13.174Z,16.24
2019-02-16T03:12:53.838Z,16.34
2019-02-16T03:13:34.490Z,16.3
2019-02-16T03:14:15.131Z,16.27
2019-02-16T03:14:55.791Z,16.27
2019-02-16T03:15:36.437Z,16.25
2019-02-16T03:16:17.091Z,16.28
2019-02-16T03:16:57.743Z,16.34
2019-02-16T03:17:38.385Z,16.25
2019-02-16T03:18:19.039Z,16.25
2019-02-16T03:18:59.693Z,16.35
2019-02-16T03:19:40.333Z,16.27
2019-02-16T03:20:20.981Z,16.25
2019-02-16T03:21:01.624Z,16.27
2019-02-16T03:21:42.265Z,16.25
2019-02-16T03:22:22.917Z,16.23
2019-02-16T03:23:03.671Z,16.28
2019-02-16T03:23:44.321Z,16.25
2019-02-16T03:24:25.059Z,16.27
2019-02-16T03:25:05.691Z,16.33
2019-02-16T03:25:46.400Z,16.33
2019-02-16T03:26:27.088Z,16.28
2019-02-16T03:27:07.840Z,16.3
2019-02-16T03:27:48.526Z,16.31
2019-02-16T03:28:29.235Z,16.27
2019-02-16T03:29:09.942Z,16.28
2019-02-16T03:29:50.633Z,16.31
2019-02-16T03:30:31.318Z,16.25
2019-02-16T03:31:11.999Z,16.27
2019-02-16T03:31:52.703Z,16.24
2019-02-16T03:32:33.425Z,16.25
2019-02-16T03:33:14.168Z,16.24
2019-02-16T03:33:54.913Z,16.28
2019-02-16T03:34:35.639Z,16.28
2019-02-16T03:35:16.349Z,16.31
2019-02-16T03:35:57.104Z,16.31
2019-02-16T03:36:37.814Z,16.31
2019-02-16T03:37:18.497Z,16.3
2019-02-16T03:37:59.197Z,16.3
2019-02-16T03:38:39.841Z,16.28
2019-02-16T03:39:20.502Z,16.39
2019-02-16T03:40:01.146Z,16.3
2019-02-16T03:40:41.791Z,16.3
2019-02-16T03:41:22.457Z,16.34
2019-02-16T03:42:03.111Z,16.25
2019-02-16T03:42:43.763Z,16.28
2019-02-16T03:43:24.403Z,16.24
2019-02-16T03:44:05.082Z,16.27
2019-02-16T03:44:45.716Z,16.3
2019-02-16T03:45:26.361Z,16.31
2019-02-16T03:46:07.007Z,16.24
2019-02-16T03:46:47.714Z,16.31
2019-02-16T03:47:28.348Z,16.31
2019-02-16T03:48:09.057Z,16.25
2019-02-16T03:48:49.704Z,16.3
2019-02-16T03:49:30.339Z,16.28
2019-02-16T03:50:10.981Z,16.28
2019-02-16T03:50:51.633Z,16.24
2019-02-16T03:51:32.277Z,16.27
2019-02-16T03:52:14.234Z,16.21
2019-02-16T03:52:53.587Z,16.25
2019-02-16T03:53:34.234Z,16.31
2019-02-16T03:54:14.872Z,16.21
2019-02-16T03:54:55.491Z,16.35
2019-02-16T03:55:36.130Z,16.25
2019-02-16T03:56:16.770Z,16.34
2019-02-16T03:56:57.386Z,16.25
2019-02-16T03:57:38.006Z,16.3
2019-02-16T03:58:18.608Z,16.31
2019-02-16T03:58:59.251Z,16.33
2019-02-16T03:59:39.888Z,16.27
2019-02-16T04:00:20.500Z,16.25
2019-02-16T04:01:01.138Z,16.25
2019-02-16T04:01:41.806Z,16.41
2019-02-16T04:02:22.437Z,16.27
2019-02-16T04:03:03.126Z,16.23
2019-02-16T04:03:43.770Z,16.28
2019-02-16T04:04:24.402Z,16.3
2019-02-16T04:05:05.031Z,16.28
2019-02-16T04:05:45.684Z,16.3
2019-02-16T04:06:26.275Z,16.27
2019-02-16T04:07:06.895Z,16.3
2019-02-16T04:07:47.498Z,16.24
2019-02-16T04:08:28.086Z,16.25
2019-02-16T04:09:08.676Z,16.33
2019-02-16T04:09:49.266Z,16.17
2019-02-16T04:10:29.890Z,16.34
2019-02-16T04:11:10.456Z,16.27
2019-02-16T04:11:51.046Z,16.24
2019-02-16T04:12:31.656Z,16.31
2019-02-16T04:13:12.241Z,16.31
2019-02-16T04:13:52.836Z,16.31
2019-02-16T04:14:33.428Z,16.21
2019-02-16T04:15:14.039Z,16.25
2019-02-16T04:15:54.633Z,16.28
2019-02-16T04:16:35.226Z,16.24
2019-02-16T04:17:15.858Z,16.2
2019-02-16T04:17:56.450Z,16.28
2019-02-16T04:18:37.049Z,16.31
2019-02-16T04:19:17.639Z,16.23
2019-02-16T04:19:58.243Z,16.38
2019-02-16T04:20:38.830Z,16.3
2019-02-16T04:21:19.428Z,16.17
2019-02-16T04:22:00.018Z,16.24
2019-02-16T04:22:40.644Z,16.25
2019-02-16T04:23:21.272Z,16.28
2019-02-16T04:24:01.862Z,16.24
2019-02-16T04:24:42.474Z,16.28
2019-02-16T04:25:23.062Z,16.23
2019-02-16T04:26:03.651Z,16.3
2019-02-16T04:26:44.253Z,16.33
2019-02-16T04:27:24.862Z,16.21
2019-02-16T04:28:05.481Z,16.28
2019-02-16T04:28:46.078Z,16.25
2019-02-16T04:29:26.680Z,16.23
2019-02-16T04:30:07.268Z,16.27
2019-02-16T04:30:48.223Z,16.3
2019-02-16T04:31:28.456Z,16.24
2019-02-16T04:32:09.048Z,16.17
2019-02-16T04:32:49.646Z,16.31
2019-02-16T04:33:30.245Z,16.25
2019-02-16T04:34:10.842Z,16.28
2019-02-16T04:34:51.452Z,16.25
2019-02-16T04:35:32.041Z,16.3
2019-02-16T04:36:12.620Z,16.3
2019-02-16T04:36:53.250Z,16.25
2019-02-16T04:37:33.848Z,16.24
2019-02-16T04:38:14.444Z,16.25
2019-02-16T04:38:55.033Z,16.27
2019-02-16T04:39:35.644Z,16.24
2019-02-16T04:40:16.224Z,16.2
2019-02-16T04:40:56.842Z,16.25
2019-02-16T04:41:37.444Z,16.31
2019-02-16T04:42:18.034Z,16.28
2019-02-16T04:42:58.610Z,16.23
2019-02-16T04:43:39.206Z,16.25
2019-02-16T04:44:19.804Z,16.24
2019-02-16T04:45:00.412Z,16.24
2019-02-16T04:45:41.033Z,16.34
2019-02-16T04:46:21.629Z,16.15
2019-02-16T04:47:02.229Z,16.27
2019-02-16T04:47:42.822Z,16.24
2019-02-16T04:48:23.425Z,16.3
2019-02-16T04:49:04.009Z,16.17
2019-02-16T04:49:44.604Z,16.35
2019-02-16T04:50:25.190Z,16.25
2019-02-16T04:51:05.778Z,16.25
2019-02-16T04:51:46.386Z,16.3
2019-02-16T04:52:34.228Z,16.2
2019-02-16T04:53:07.572Z,16.28
2019-02-16T04:53:48.156Z,16.3
2019-02-16T04:54:28.757Z,16.27
2019-02-16T04:55:09.363Z,16.25
2019-02-16T04:55:49.987Z,16.27
2019-02-16T04:56:30.620Z,16.3
2019-02-16T04:57:11.212Z,16.25
2019-02-16T04:57:51.797Z,16.31
2019-02-16T04:58:32.402Z,16.27
2019-02-16T04:59:12.978Z,16.31
2019-02-16T04:59:53.582Z,16.31
2019-02-16T05:00:34.162Z,16.25
2019-02-16T05:01:14.772Z,16.31
2019-02-16T05:01:55.694Z,16.31
2019-02-16T05:02:36.018Z,16.25
2019-02-16T05:03:16.614Z,16.25
2019-02-16T05:03:57.203Z,16.27
2019-02-16T05:04:37.785Z,16.25
2019-02-16T05:05:18.369Z,16.33
2019-02-16T05:05:59.781Z,16.3
2019-02-16T05:06:39.574Z,16.21
2019-02-16T05:07:20.160Z,16.27
2019-02-16T05:08:00.800Z,16.2
2019-02-16T05:08:41.396Z,16.27
2019-02-16T05:09:21.988Z,16.27
2019-02-16T05:10:02.576Z,16.27
2019-02-16T05:10:43.276Z,16.27
2019-02-16T05:11:23.865Z,16.25
2019-02-16T05:12:04.461Z,16.25
2019-02-16T05:12:45.047Z,16.2
2019-02-16T05:13:25.637Z,16.15
2019-02-16T05:14:06.247Z,16.2
2019-02-16T05:14:47.131Z,16.2
2019-02-16T05:15:27.418Z,16.25
2019-02-16T05:16:08.042Z,16.2
2019-02-16T05:16:48.635Z,16.27
2019-02-16T05:17:29.234Z,16.2
2019-02-16T05:18:09.851Z,16.25
2019-02-16T05:18:50.440Z,16.21
2019-02-16T05:19:31.027Z,16.14
2019-02-16T05:20:11.617Z,16.24
2019-02-16T05:20:52.230Z,16.23
2019-02-16T05:21:32.838Z,16.25
2019-02-16T05:22:13.417Z,16.23
2019-02-16T05:22:54.017Z,16.27
2019-02-16T05:23:34.618Z,16.27
2019-02-16T05:24:15.222Z,16.25
2019-02-16T05:24:55.820Z,16.15
2019-02-16T05:25:36.421Z,16.24
2019-02-16T05:26:17.001Z,16.27
2019-02-16T05:26:57.587Z,16.23
2019-02-16T05:27:38.182Z,16.24
2019-02-16T05:28:18.766Z,16.15
2019-02-16T05:28:59.378Z,16.15
2019-02-16T05:29:39.964Z,16.14
2019-02-16T05:30:20.591Z,16.15
2019-02-16T05:31:01.186Z,16.21
2019-02-16T05:31:41.782Z,16.25
2019-02-16T05:32:22.396Z,16.21
2019-02-16T05:33:02.997Z,16.12
2019-02-16T05:33:43.586Z,16.17
2019-02-16T05:34:24.188Z,16.24
2019-02-16T05:35:04.803Z,16.14
2019-02-16T05:35:45.395Z,16.12
2019-02-16T05:36:26.020Z,16.21
2019-02-16T05:37:06.606Z,16.15
2019-02-16T05:37:47.189Z,16.24
2019-02-16T05:38:27.776Z,16.3
2019-02-16T05:39:08.368Z,16.24
2019-02-16T05:39:49.097Z,16.27
2019-02-16T05:40:29.566Z,16.2
2019-02-16T05:41:10.158Z,16.23
2019-02-16T05:41:50.756Z,16.17
2019-02-16T05:42:31.344Z,16.27
2019-02-16T05:43:11.926Z,16.21
2019-02-16T05:43:52.533Z,16.27
2019-02-16T05:44:33.121Z,16.12
2019-02-16T05:45:13.716Z,16.09
2019-02-16T05:45:54.334Z,16.21
2019-02-16T05:46:34.931Z,16.28
2019-02-16T05:47:15.537Z,16.14
2019-02-16T05:47:56.132Z,16.24
2019-02-16T05:48:36.743Z,16.11
2019-02-16T05:49:17.343Z,16.17
2019-02-16T05:49:57.942Z,16.12
2019-02-16T05:50:38.571Z,16.17
2019-02-16T05:51:19.174Z,16.17
2019-02-16T05:51:59.758Z,16.17
2019-02-16T05:52:40.350Z,16.15
2019-02-16T05:53:20.933Z,16.12
2019-02-16T05:54:01.542Z,16.25
2019-02-16T05:54:42.157Z,16.2
2019-02-16T05:55:22.765Z,16.12
2019-02-16T05:56:03.358Z,16.17
2019-02-16T05:56:43.955Z,16.15
2019-02-16T05:57:24.555Z,16.25
2019-02-16T05:58:05.140Z,16.25
2019-02-16T05:58:45.723Z,16.12
2019-02-16T05:59:26.313Z,16.15
2019-02-16T06:00:06.925Z,16.17
2019-02-16T06:00:47.537Z,16.15
2019-02-16T06:01:28.137Z,16.15
2019-02-16T06:02:08.724Z,16.14
2019-02-16T06:02:49.326Z,16.17
2019-02-16T06:03:29.921Z,16.17
2019-02-16T06:04:10.573Z,16.21
2019-02-16T06:04:51.158Z,16.21
2019-02-16T06:05:31.782Z,16.15
2019-02-16T06:06:12.363Z,16.23
2019-02-16T06:06:52.955Z,16.14
2019-02-16T06:07:33.585Z,16.21
2019-02-16T06:08:14.192Z,16.21
2019-02-16T06:08:54.791Z,16.2
2019-02-16T06:09:35.396Z,16.15
2019-02-16T06:10:16.045Z,16.21
2019-02-16T06:10:56.642Z,16.21
2019-02-16T06:11:37.235Z,16.17
2019-02-16T06:12:17.848Z,16.25
2019-02-16T06:12:58.436Z,16.21
2019-02-16T06:13:39.037Z,16.2
2019-02-16T06:14:19.622Z,16.17
2019-02-16T06:15:00.224Z,16.14
2019-02-16T06:15:40.835Z,16.2
2019-02-16T06:16:21.412Z,16.15
2019-02-16T06:17:02.008Z,16.2
2019-02-16T06:17:42.593Z,16.2
2019-02-16T06:18:23.205Z,16.11
2019-02-16T06:19:03.826Z,16.17
2019-02-16T06:19:44.430Z,16.14
2019-02-16T06:20:25.022Z,16.23
2019-02-16T06:21:05.621Z,16.21
2019-02-16T06:21:46.226Z,16.15
2019-02-16T06:22:26.809Z,16.14
2019-02-16T06:23:07.393Z,16.15
2019-02-16T06:23:48.106Z,16.23
2019-02-16T06:24:28.580Z,16.17
2019-02-16T06:25:09.178Z,16.11
2019-02-16T06:25:49.779Z,16.17
2019-02-16T06:26:30.387Z,16.14
2019-02-16T06:27:10.984Z,16.21
2019-02-16T06:27:51.577Z,16.21
2019-02-16T06:28:32.159Z,16.11
2019-02-16T06:29:12.755Z,16.12
2019-02-16T06:29:53.360Z,16.14
2019-02-16T06:30:33.957Z,16.15
2019-02-16T06:31:14.548Z,16.14
2019-02-16T06:31:55.136Z,16.24
2019-02-16T06:32:35.755Z,16.12
2019-02-16T06:33:16.349Z,16.15
2019-02-16T06:33:56.943Z,16.14
2019-02-16T06:34:37.526Z,16.14
2019-02-16T06:35:18.109Z,16.14
2019-02-16T06:35:58.709Z,16.17
2019-02-16T06:36:39.292Z,16.12
2019-02-16T06:37:19.882Z,16.2
2019-02-16T06:38:00.527Z,16.24
2019-02-16T06:38:41.051Z,16.15
2019-02-16T06:39:21.635Z,16.15
2019-02-16T06:40:02.235Z,16.15
2019-02-16T06:40:42.831Z,16.15
2019-02-16T06:41:23.444Z,16.17
2019-02-16T06:42:04.043Z,16.17
2019-02-16T06:42:44.627Z,16.21
2019-02-16T06:43:25.244Z,16.17
2019-02-16T06:44:05.831Z,16.2
2019-02-16T06:44:46.461Z,16.14
2019-02-16T06:45:27.055Z,16.15
2019-02-16T06:46:07.698Z,16.15
2019-02-16T06:46:48.268Z,16.15
2019-02-16T06:47:28.882Z,16.2
2019-02-16T06:48:09.471Z,16.17
2019-02-16T06:48:50.063Z,16.15
2019-02-16T06:49:30.682Z,16.14
2019-02-16T06:50:11.303Z,16.21
2019-02-16T06:50:51.905Z,16.21
2019-02-16T06:51:32.522Z,16.14
2019-02-16T06:52:13.126Z,16.17
2019-02-16T06:52:53.752Z,16.21
2019-02-16T06:53:34.363Z,16.21
2019-02-16T06:54:14.948Z,16.14
2019-02-16T06:54:55.535Z,16.11
2019-02-16T06:55:36.125Z,16.15
2019-02-16T06:56:16.711Z,16.14
2019-02-16T06:56:57.329Z,16.21
2019-02-16T06:57:37.915Z,16.12
2019-02-16T06:58:18.542Z,16.17
2019-02-16T06:58:59.127Z,16.24
2019-02-16T06:59:39.724Z,16.21
2019-02-16T07:00:20.321Z,16.15
2019-02-16T07:01:00.929Z,16.21
2019-02-16T07:01:41.516Z,16.14
2019-02-16T07:02:22.113Z,16.15
2019-02-16T07:03:02.729Z,16.21
2019-02-16T07:03:43.317Z,16.17
2019-02-16T07:04:23.919Z,16.2
2019-02-16T07:05:04.582Z,16.2
2019-02-16T07:05:45.164Z,16.2
2019-02-16T07:06:25.763Z,16.15
2019-02-16T07:07:06.352Z,16.15
2019-02-16T07:07:46.960Z,16.14
2019-02-16T07:08:27.571Z,16.21
2019-02-16T07:09:08.156Z,16.15
2019-02-16T07:09:48.753Z,16.23
2019-02-16T07:10:29.359Z,16.23
2019-02-16T07:11:09.963Z,16.25
2019-02-16T07:11:50.545Z,16.14
2019-02-16T07:12:31.145Z,16.17
2019-02-16T07:13:11.774Z,16.14
2019-02-16T07:13:52.311Z,16.21
2019-02-16T07:14:32.910Z,16.15
2019-02-16T07:15:13.521Z,16.27
2019-02-16T07:15:54.098Z,16.21
2019-02-16T07:16:34.684Z,16.14
2019-02-16T07:17:15.287Z,16.2
2019-02-16T07:17:55.911Z,16.17
2019-02-16T07:18:36.504Z,16.17
2019-02-16T07:19:17.097Z,16.12
2019-02-16T07:19:57.689Z,16.17
2019-02-16T07:20:38.295Z,16.2
2019-02-16T07:21:18.882Z,16.27
2019-02-16T07:21:59.480Z,16.2
2019-02-16T07:22:40.089Z,16.2
2019-02-16T07:23:22.638Z,16.3
2019-02-16T07:24:01.315Z,16.25
2019-02-16T07:24:41.905Z,16.24
2019-02-16T07:25:22.500Z,16.2
2019-02-16T07:26:04.881Z,16.24
2019-02-16T07:26:43.707Z,16.24
2019-02-16T07:27:24.361Z,16.3
2019-02-16T07:28:04.887Z,16.27
2019-02-16T07:28:45.492Z,16.27
2019-02-16T07:29:26.105Z,16.2
2019-02-16T07:30:06.699Z,16.17
2019-02-16T07:30:47.313Z,16.23
2019-02-16T07:31:27.903Z,16.31
2019-02-16T07:32:08.493Z,16.2
2019-02-16T07:32:49.079Z,16.25
2019-02-16T07:33:29.693Z,16.25
2019-02-16T07:34:10.297Z,16.3
2019-02-16T07:34:50.873Z,16.23
2019-02-16T07:35:31.459Z,16.25
2019-02-16T07:36:12.058Z,16.3
2019-02-16T07:36:52.647Z,16.23
2019-02-16T07:37:33.280Z,16.21
2019-02-16T07:38:13.867Z,16.25
2019-02-16T07:38:54.461Z,16.33
2019-02-16T07:39:35.099Z,16.2
2019-02-16T07:40:15.675Z,16.27
2019-02-16T07:40:56.338Z,16.34
2019-02-16T07:41:36.935Z,16.25
2019-02-16T07:42:17.547Z,16.25
2019-02-16T07:42:58.131Z,16.17
2019-02-16T07:43:38.766Z,16.15
2019-02-16T07:44:19.317Z,16.24
2019-02-16T07:44:59.915Z,16.28
2019-02-16T07:45:40.541Z,16.28
2019-02-16T07:46:21.121Z,16.24
2019-02-16T07:47:01.729Z,16.24
2019-02-16T07:47:42.367Z,16.28
2019-02-16T07:48:22.949Z,16.31
2019-02-16T07:49:03.526Z,16.28
2019-02-16T07:49:44.138Z,16.28
2019-02-16T07:50:24.727Z,16.31
2019-02-16T07:51:05.319Z,16.2
2019-02-16T07:51:45.921Z,16.28
2019-02-16T07:52:26.515Z,16.28
2019-02-16T07:53:07.154Z,16.3
2019-02-16T07:53:47.773Z,16.28
2019-02-16T07:54:28.385Z,16.27
2019-02-16T07:55:08.979Z,16.17
2019-02-16T07:55:49.565Z,16.3
2019-02-16T07:56:30.188Z,16.34
2019-02-16T07:57:10.773Z,16.35
2019-02-16T07:57:51.382Z,16.28
2019-02-16T07:58:31.971Z,16.33
2019-02-16T07:59:12.556Z,16.31
2019-02-16T07:59:53.168Z,16.38
2019-02-16T08:00:33.764Z,16.28
2019-02-16T08:01:14.359Z,16.31
2019-02-16T08:01:56.695Z,16.27
2019-02-16T08:02:35.548Z,16.28
2019-02-16T08:03:16.349Z,16.31
2019-02-16T08:03:56.932Z,16.39
2019-02-16T08:04:37.525Z,16.34
2019-02-16T08:05:18.256Z,16.27
2019-02-16T08:05:58.833Z,16.31
2019-02-16T08:06:39.448Z,16.28
2019-02-16T08:07:20.099Z,16.27
2019-02-16T08:08:00.687Z,16.27
2019-02-16T08:08:41.279Z,16.24
2019-02-16T08:09:21.891Z,16.31
2019-02-16T08:10:02.525Z,16.31
2019-02-16T08:10:43.101Z,16.27
2019-02-16T08:11:23.699Z,16.34
2019-02-16T08:12:04.297Z,16.31
2019-02-16T08:12:44.897Z,16.27
2019-02-16T08:13:25.479Z,16.25
2019-02-16T08:14:06.076Z,16.27
2019-02-16T08:14:46.693Z,16.31
2019-02-16T08:15:27.289Z,16.27
2019-02-16T08:16:07.903Z,16.24
2019-02-16T08:16:48.493Z,16.34
2019-02-16T08:17:29.097Z,16.27
2019-02-16T08:18:09.719Z,16.24
2019-02-16T08:18:50.319Z,16.27
2019-02-16T08:19:30.900Z,16.28
2019-02-16T08:20:11.482Z,16.25
2019-02-16T08:20:52.089Z,16.3
2019-02-16T08:21:32.671Z,16.25
2019-02-16T08:22:13.272Z,16.27
2019-02-16T08:22:53.861Z,16.24
2019-02-16T08:23:40.099Z,16.23
2019-02-16T08:24:15.039Z,16.28
2019-02-16T08:24:55.642Z,16.25
2019-02-16T08:25:36.247Z,16.28
2019-02-16T08:26:16.839Z,16.23
2019-02-16T08:26:57.463Z,16.27
2019-02-16T08:27:38.067Z,16.34
2019-02-16T08:28:18.657Z,16.31
2019-02-16T08:28:59.277Z,16.27
2019-02-16T08:29:39.869Z,16.38
2019-02-16T08:30:20.465Z,16.28
2019-02-16T08:31:01.095Z,16.38
2019-02-16T08:31:41.707Z,16.42
2019-02-16T08:32:22.321Z,16.34
2019-02-16T08:33:02.935Z,16.28
2019-02-16T08:33:43.592Z,16.34
2019-02-16T08:34:24.207Z,16.38
2019-02-16T08:35:04.791Z,16.38
2019-02-16T08:35:45.417Z,16.28
2019-02-16T08:36:26.003Z,16.38
2019-02-16T08:37:06.597Z,16.34
2019-02-16T08:37:47.200Z,16.28
2019-02-16T08:38:27.817Z,16.33
2019-02-16T08:39:08.421Z,16.33
2019-02-16T08:39:49.055Z,16.3
2019-02-16T08:40:29.716Z,16.33
2019-02-16T08:41:10.299Z,16.33
2019-02-16T08:41:50.885Z,16.35
2019-02-16T08:42:31.478Z,16.33
2019-02-16T08:43:12.075Z,16.34
2019-02-16T08:43:52.675Z,16.43
2019-02-16T08:44:33.275Z,16.33
2019-02-16T08:45:13.883Z,16.35